Time;durP1;ratioP1;P1;durP2;ratioP2;P2;SDS_P1;SDS_P2;PMS_P1;PMS_P2;Temp;Humidity;BMP_temperature;BMP_pressure;BME280_temperature;BME280_humidity;BME280_pressure;Samples;Min_cycle;Max_cycle;Signal;HPM_P1;HPM_P2
2023/07/12 00:00:27;;;;;;;7.78;7.05;;;;;;;;;;5017614;28;20219;-81
2023/07/12 00:02:56;;;;;;;8.32;7.28;;;;;;;;;;5042616;28;20237;-82
2023/07/12 00:05:27;;;;;;;8.93;8.02;;;;;;;;;;5028540;28;20207;-81
2023/07/12 00:07:53;;;;;;;13.18;6.22;;;;;;;;;;5016788;28;20219;-80
2023/07/12 00:10:23;;;;;;;7.95;7.18;;;;;;;;;;5019137;28;20263;-80
2023/07/12 00:12:51;;;;;;;7.40;6.70;;;;;;;;;;5031085;28;20285;-80
2023/07/12 00:15:21;;;;;;;8.93;7.55;;;;;;;;;;5032600;28;20257;-81
2023/07/12 00:17:50;;;;;;;8.70;7.80;;;;;;;;;;5059271;28;20220;-81
2023/07/12 00:20:20;;;;;;;9.73;7.53;;;;;;;;;;5017071;28;20215;-81
2023/07/12 00:22:46;;;;;;;8.30;7.32;;;;;;;;;;5059453;28;20764;-81
2023/07/12 00:25:14;;;;;;;8.48;7.55;;;;;;;;;;5028003;28;20219;-80
2023/07/12 00:27:45;;;;;;;9.80;7.60;;;;;;;;;;5005444;28;20243;-80
2023/07/12 00:30:14;;;;;;;7.90;7.20;;;;;;;;;;5006386;28;20218;-79
2023/07/12 00:32:42;;;;;;;8.00;7.20;;;;;;;;;;5039291;28;20265;-81
2023/07/12 00:35:12;;;;;;;9.50;7.63;;;;;;;;;;5040164;28;20222;-79
2023/07/12 00:37:38;;;;;;;7.60;6.82;;;;;;;;;;5036101;28;20220;-81
2023/07/12 00:40:35;;;;;;;10.57;6.85;;;;;;;;;;5010885;28;20210;-80
2023/07/12 00:43:19;;;;;;;7.45;6.68;;;;;;;;;;5015695;28;20220;-81
2023/07/12 00:45:49;;;;;;;8.60;7.70;;;;;;;;;;5020218;28;20215;-80
2023/07/12 00:48:16;;;;;;;8.02;6.88;;;;;;;;;;5026689;28;20315;-80
2023/07/12 00:50:43;;;;;;;8.30;6.97;;;;;;;;;;5036637;28;20214;-80
2023/07/12 00:53:34;;;;;;;7.50;6.80;;;;;;;;;;5040440;28;20219;-79
2023/07/12 00:56:03;;;;;;;9.23;7.45;;;;;;;;;;5042420;28;20747;-80
2023/07/12 00:58:52;;;;;;;9.10;7.28;;;;;;;;;;5039896;28;20215;-80
2023/07/12 01:01:17;;;;;;;8.23;7.40;;;;;;;;;;5018422;28;20239;-81
2023/07/12 01:03:43;;;;;;;7.82;7.07;;;;;;;;;;5039176;28;20272;-80
2023/07/12 01:06:13;;;;;;;8.05;7.25;;;;;;;;;;5022823;28;20294;-80
2023/07/12 01:08:41;;;;;;;8.20;7.40;;;;;;;;;;5055182;28;20261;-79
2023/07/12 01:11:08;;;;;;;8.27;7.50;;;;;;;;;;5020186;28;20235;-80
2023/07/12 01:13:33;;;;;;;9.20;7.53;;;;;;;;;;5007354;28;20220;-80
2023/07/12 01:16:01;;;;;;;7.80;6.80;;;;;;;;;;5024901;28;20208;-80
2023/07/12 01:18:27;;;;;;;8.13;7.32;;;;;;;;;;5023670;28;20226;-79
2023/07/12 01:21:07;;;;;;;11.45;7.45;;;;;;;;;;5012123;28;20841;-79
2023/07/12 01:23:32;;;;;;;6.55;5.82;;;;;;;;;;5020657;28;20362;-78
2023/07/12 01:26:22;;;;;;;6.85;6.15;;;;;;;;;;5020017;28;20689;-79
2023/07/12 01:28:57;;;;;;;11.18;5.95;;;;;;;;;;5042954;28;20745;-76
2023/07/12 01:31:24;;;;;;;7.05;6.18;;;;;;;;;;5027658;28;20298;-79
2023/07/12 01:33:49;;;;;;;6.30;5.60;;;;;;;;;;5025094;28;20215;-79
2023/07/12 01:36:15;;;;;;;6.40;5.63;;;;;;;;;;5005763;28;20303;-80
2023/07/12 01:38:40;;;;;;;8.10;5.85;;;;;;;;;;5025992;28;20216;-79
2023/07/12 01:41:06;;;;;;;8.90;5.07;;;;;;;;;;4985418;28;20219;-80
2023/07/12 01:43:31;;;;;;;9.57;5.03;;;;;;;;;;5018209;28;20761;-78
2023/07/12 01:45:59;;;;;;;6.28;5.20;;;;;;;;;;5030600;28;20216;-79
2023/07/12 01:48:25;;;;;;;6.18;4.85;;;;;;;;;;4998960;28;20314;-80
2023/07/12 01:50:53;;;;;;;6.38;4.65;;;;;;;;;;5039971;28;20221;-78
2023/07/12 01:53:20;;;;;;;6.65;4.50;;;;;;;;;;5017232;28;20846;-77
2023/07/12 01:55:46;;;;;;;7.55;4.53;;;;;;;;;;5026706;28;20220;-79
2023/07/12 01:58:14;;;;;;;8.02;4.47;;;;;;;;;;5016181;28;20224;-78
2023/07/12 02:00:44;;;;;;;5.95;3.85;;;;;;;;;;5007721;28;20216;-82
2023/07/12 02:03:12;;;;;;;6.18;3.90;;;;;;;;;;4995459;28;20220;-80
2023/07/12 02:05:38;;;;;;;5.45;3.65;;;;;;;;;;5020784;28;20636;-78
2023/07/12 02:08:04;;;;;;;7.18;3.58;;;;;;;;;;5001010;28;20216;-80
2023/07/12 02:10:29;;;;;;;7.35;3.35;;;;;;;;;;5005919;28;20227;-77
2023/07/12 02:12:55;;;;;;;4.72;3.20;;;;;;;;;;4996770;28;20213;-78
2023/07/12 02:15:24;;;;;;;12.13;4.60;;;;;;;;;;5029039;28;20306;-77
2023/07/12 02:17:53;;;;;;;6.78;4.75;;;;;;;;;;5015880;28;20213;-76
2023/07/12 02:20:20;;;;;;;9.00;4.55;;;;;;;;;;5006670;28;20215;-77
2023/07/12 02:22:47;;;;;;;8.88;4.32;;;;;;;;;;5041702;28;20303;-77
2023/07/12 02:25:18;;;;;;;9.63;4.55;;;;;;;;;;5020955;28;20219;-79
2023/07/12 02:27:48;;;;;;;5.97;4.47;;;;;;;;;;4992476;28;20216;-77
2023/07/12 02:30:25;;;;;;;8.07;5.00;;;;;;;;;;5011433;28;20243;-78
2023/07/12 02:32:53;;;;;;;9.43;4.85;;;;;;;;;;5012278;28;20325;-78
2023/07/12 02:35:19;;;;;;;9.15;4.53;;;;;;;;;;5019914;28;20251;-77
2023/07/12 02:37:45;;;;;;;6.38;4.72;;;;;;;;;;5027722;28;20695;-77
2023/07/12 02:40:13;;;;;;;8.98;4.57;;;;;;;;;;5011575;28;20220;-77
2023/07/12 02:42:44;;;;;;;6.82;4.50;;;;;;;;;;5028672;28;20223;-77
2023/07/12 02:45:09;;;;;;;6.43;3.58;;;;;;;;;;5018956;28;20208;-76
2023/07/12 02:47:35;;;;;;;6.45;3.92;;;;;;;;;;5027807;28;20755;-78
2023/07/12 02:50:01;;;;;;;5.80;3.83;;;;;;;;;;5004823;28;20224;-78
2023/07/12 02:52:29;;;;;;;5.20;3.38;;;;;;;;;;5028694;28;20223;-77
2023/07/12 02:54:59;;;;;;;3.35;3.05;;;;;;;;;;5021304;28;20234;-78
2023/07/12 02:57:25;;;;;;;3.70;3.22;;;;;;;;;;5036439;28;20239;-77
2023/07/12 02:59:53;;;;;;;4.28;3.13;;;;;;;;;;4993377;28;20219;-78
2023/07/12 03:02:19;;;;;;;4.30;3.40;;;;;;;;;;5001606;28;20222;-78
2023/07/12 03:04:46;;;;;;;4.38;3.47;;;;;;;;;;5013292;28;20208;-77
2023/07/12 03:07:12;;;;;;;5.10;3.42;;;;;;;;;;5027844;28;20223;-78
2023/07/12 03:09:40;;;;;;;4.35;3.53;;;;;;;;;;5043027;28;20218;-76
2023/07/12 03:12:07;;;;;;;4.10;3.70;;;;;;;;;;5033069;28;20208;-77
2023/07/12 03:14:33;;;;;;;4.07;3.67;;;;;;;;;;5017100;28;20234;-77
2023/07/12 03:16:59;;;;;;;5.32;3.97;;;;;;;;;;5034126;28;20231;-77
2023/07/12 03:19:24;;;;;;;4.68;4.18;;;;;;;;;;5032657;28;20227;-77
2023/07/12 03:21:52;;;;;;;3.78;3.47;;;;;;;;;;5027236;28;20216;-77
2023/07/12 03:24:17;;;;;;;5.05;4.07;;;;;;;;;;4997720;28;20299;-77
2023/07/12 03:26:43;;;;;;;4.00;3.38;;;;;;;;;;5001048;28;20597;-77
2023/07/12 03:29:08;;;;;;;5.78;3.72;;;;;;;;;;5017155;28;20224;-77
2023/07/12 03:31:34;;;;;;;5.97;4.25;;;;;;;;;;5034167;28;20220;-77
2023/07/12 03:33:59;;;;;;;4.82;4.25;;;;;;;;;;5017351;28;20588;-77
2023/07/12 03:36:29;;;;;;;4.35;3.90;;;;;;;;;;4976678;28;20736;-77
2023/07/12 03:38:55;;;;;;;4.90;3.95;;;;;;;;;;5015593;28;20593;-77
2023/07/12 03:41:21;;;;;;;7.78;4.22;;;;;;;;;;5015461;28;20226;-77
2023/07/12 03:43:49;;;;;;;4.50;4.05;;;;;;;;;;5012554;28;20274;-77
2023/07/12 03:46:15;;;;;;;4.88;4.40;;;;;;;;;;5014560;28;20295;-77
2023/07/12 03:48:41;;;;;;;4.30;4.00;;;;;;;;;;4975644;28;20224;-77
2023/07/12 03:51:06;;;;;;;4.40;3.97;;;;;;;;;;5040310;28;20219;-77
2023/07/12 03:53:32;;;;;;;4.85;4.32;;;;;;;;;;5016551;28;20232;-75
2023/07/12 03:55:58;;;;;;;4.57;4.18;;;;;;;;;;5044070;28;20212;-77
2023/07/12 03:58:30;;;;;;;4.65;4.15;;;;;;;;;;5000828;28;20231;-77
2023/07/12 04:04:46;;;;;;;4.68;4.25;;;;;;;;;;5039614;28;20265;-78
2023/07/12 04:07:11;;;;;;;4.35;3.90;;;;;;;;;;5035917;28;20204;-76
2023/07/12 04:09:39;;;;;;;5.15;4.30;;;;;;;;;;5041834;28;20217;-78
2023/07/12 04:12:05;;;;;;;5.03;4.47;;;;;;;;;;5020207;28;20220;-78
2023/07/12 04:14:35;;;;;;;4.90;4.50;;;;;;;;;;5005317;28;20589;-78
2023/07/12 04:17:03;;;;;;;5.30;4.70;;;;;;;;;;5024811;28;20227;-77
2023/07/12 04:19:31;;;;;;;5.80;4.25;;;;;;;;;;5024045;28;20220;-77
2023/07/12 04:21:56;;;;;;;5.22;4.70;;;;;;;;;;5046329;28;20215;-77
2023/07/12 04:24:21;;;;;;;5.65;4.68;;;;;;;;;;5028141;28;20220;-76
2023/07/12 04:26:54;;;;;;;6.88;4.60;;;;;;;;;;5031538;28;20304;-77
2023/07/12 04:29:20;;;;;;;4.57;4.18;;;;;;;;;;5027645;28;20327;-76
2023/07/12 04:31:45;;;;;;;5.00;4.60;;;;;;;;;;5028882;28;20233;-77
2023/07/12 04:34:15;;;;;;;4.80;4.40;;;;;;;;;;5056632;28;20223;-76
2023/07/12 04:36:41;;;;;;;5.47;4.68;;;;;;;;;;5040682;28;20216;-77
2023/07/12 04:39:08;;;;;;;5.82;4.97;;;;;;;;;;5031719;28;20211;-79
2023/07/12 04:41:36;;;;;;;5.65;4.75;;;;;;;;;;5028262;28;20216;-77
2023/07/12 04:44:01;;;;;;;6.28;5.75;;;;;;;;;;5045787;28;20282;-77
2023/07/12 04:46:31;;;;;;;6.28;5.68;;;;;;;;;;5050496;28;20246;-77
2023/07/12 04:48:59;;;;;;;6.38;5.00;;;;;;;;;;5044377;28;20700;-77
2023/07/12 04:51:27;;;;;;;6.00;5.50;;;;;;;;;;5054094;28;20230;-77
2023/07/12 04:53:52;;;;;;;6.55;5.93;;;;;;;;;;5037764;28;21308;-78
2023/07/12 04:56:18;;;;;;;6.40;5.35;;;;;;;;;;5050867;28;20280;-77
2023/07/12 04:58:46;;;;;;;7.20;5.43;;;;;;;;;;5044036;28;20215;-77
2023/07/12 05:01:14;;;;;;;6.22;5.72;;;;;;;;;;5061175;28;20215;-77
2023/07/12 05:03:39;;;;;;;6.00;5.60;;;;;;;;;;5030770;28;20216;-77
2023/07/12 05:06:05;;;;;;;7.80;6.00;;;;;;;;;;5003986;28;20276;-77
2023/07/12 05:08:33;;;;;;;7.35;5.68;;;;;;;;;;5036598;28;20216;-77
2023/07/12 05:10:59;;;;;;;8.10;6.20;;;;;;;;;;5005867;28;20274;-78
2023/07/12 05:13:24;;;;;;;6.80;5.90;;;;;;;;;;4981015;28;20228;-77
2023/07/12 05:15:53;;;;;;;6.57;5.88;;;;;;;;;;4999566;28;20216;-77
2023/07/12 05:18:19;;;;;;;6.40;5.80;;;;;;;;;;4997245;28;20600;-77
2023/07/12 05:20:45;;;;;;;6.20;5.70;;;;;;;;;;5030815;28;20312;-77
2023/07/12 05:23:11;;;;;;;5.88;5.38;;;;;;;;;;5016130;28;20236;-77
2023/07/12 05:25:38;;;;;;;5.97;5.32;;;;;;;;;;5035621;28;20322;-76
2023/07/12 05:28:07;;;;;;;5.72;5.28;;;;;;;;;;5024062;28;20223;-77
2023/07/12 05:30:35;;;;;;;6.50;5.75;;;;;;;;;;5003295;28;20215;-76
2023/07/12 05:33:02;;;;;;;5.47;5.07;;;;;;;;;;5015148;28;20335;-76
2023/07/12 05:35:28;;;;;;;7.10;5.43;;;;;;;;;;4998931;28;20227;-77
2023/07/12 05:37:53;;;;;;;5.65;5.15;;;;;;;;;;5013352;28;20224;-76
2023/07/12 05:40:22;;;;;;;5.35;4.93;;;;;;;;;;5039189;28;20679;-76
2023/07/12 05:42:47;;;;;;;5.35;4.95;;;;;;;;;;5012039;28;20758;-76
2023/07/12 05:45:15;;;;;;;5.43;5.03;;;;;;;;;;5021049;28;20304;-76
2023/07/12 05:47:46;;;;;;;5.47;4.95;;;;;;;;;;5009005;28;20227;-75
2023/07/12 05:50:13;;;;;;;8.55;4.63;;;;;;;;;;5012213;28;20225;-76
2023/07/12 05:52:39;;;;;;;4.88;4.45;;;;;;;;;;5030566;28;20219;-75
2023/07/12 05:55:06;;;;;;;4.50;4.05;;;;;;;;;;5010822;28;20223;-77
2023/07/12 05:57:33;;;;;;;4.97;3.80;;;;;;;;;;5030628;28;20227;-79
2023/07/12 06:00:01;;;;;;;4.93;3.67;;;;;;;;;;5033388;28;20215;-77
2023/07/12 06:02:31;;;;;;;3.83;3.38;;;;;;;;;;5034667;28;20640;-77
2023/07/12 06:04:57;;;;;;;5.90;3.55;;;;;;;;;;5012549;28;20231;-78
2023/07/12 06:07:22;;;;;;;3.50;3.20;;;;;;;;;;5044985;28;20704;-78
2023/07/12 06:09:55;;;;;;;3.60;3.30;;;;;;;;;;5013687;28;20832;-76
2023/07/12 06:12:21;;;;;;;3.35;3.15;;;;;;;;;;5024957;28;20228;-77
2023/07/12 06:14:49;;;;;;;4.13;3.38;;;;;;;;;;5022017;28;20234;-77
2023/07/12 06:17:14;;;;;;;3.50;2.72;;;;;;;;;;5035618;28;20223;-77
2023/07/12 06:19:46;;;;;;;4.32;2.78;;;;;;;;;;5013740;28;20555;-78
2023/07/12 06:22:12;;;;;;;2.67;2.47;;;;;;;;;;5033643;28;20234;-77
2023/07/12 06:24:37;;;;;;;3.42;2.75;;;;;;;;;;5011260;28;20208;-77
2023/07/12 06:27:03;;;;;;;3.58;2.72;;;;;;;;;;5017256;28;20223;-77
2023/07/12 06:29:29;;;;;;;3.55;2.63;;;;;;;;;;5033418;28;20242;-77
2023/07/12 06:31:54;;;;;;;2.40;2.10;;;;;;;;;;5034022;28;20212;-77
2023/07/12 06:34:20;;;;;;;3.15;2.45;;;;;;;;;;5015274;28;20216;-80
2023/07/12 06:36:46;;;;;;;3.03;2.53;;;;;;;;;;5037950;28;20295;-78
2023/07/12 06:39:11;;;;;;;3.92;2.10;;;;;;;;;;5021949;28;20781;-78
2023/07/12 06:41:37;;;;;;;3.30;2.20;;;;;;;;;;5038577;28;20216;-80
2023/07/12 06:44:05;;;;;;;2.72;1.80;;;;;;;;;;5008392;28;20211;-79
2023/07/12 06:46:33;;;;;;;2.25;2.00;;;;;;;;;;5047575;28;20212;-79
2023/07/12 06:49:00;;;;;;;2.58;1.75;;;;;;;;;;5016431;28;20224;-79
2023/07/12 06:51:26;;;;;;;1.95;1.60;;;;;;;;;;5042618;28;20226;-80
2023/07/12 06:53:52;;;;;;;2.95;2.20;;;;;;;;;;5049216;28;20224;-80
2023/07/12 06:56:20;;;;;;;2.63;1.80;;;;;;;;;;5015300;28;20726;-78
2023/07/12 06:58:46;;;;;;;2.42;2.22;;;;;;;;;;4998571;28;20283;-78
2023/07/12 07:01:13;;;;;;;2.90;1.98;;;;;;;;;;5027657;28;20233;-77
2023/07/12 07:03:40;;;;;;;1.92;1.77;;;;;;;;;;5018630;28;20204;-77
2023/07/12 07:06:08;;;;;;;2.10;1.77;;;;;;;;;;4993451;28;20215;-78
2023/07/12 07:08:36;;;;;;;2.00;1.70;;;;;;;;;;4978168;28;20216;-77
2023/07/12 07:11:02;;;;;;;1.50;1.40;;;;;;;;;;5008830;28;20235;-78
2023/07/12 07:13:30;;;;;;;1.48;1.20;;;;;;;;;;5028702;28;20364;-79
2023/07/12 07:15:58;;;;;;;1.50;1.40;;;;;;;;;;5032871;28;20215;-78
2023/07/12 07:18:24;;;;;;;3.47;1.50;;;;;;;;;;5005765;28;20226;-79
2023/07/12 07:20:50;;;;;;;2.20;1.42;;;;;;;;;;5006465;28;20215;-81
2023/07/12 07:23:16;;;;;;;2.38;1.42;;;;;;;;;;5019924;28;20234;-79
2023/07/12 07:25:41;;;;;;;1.08;0.98;;;;;;;;;;5021697;28;20216;-79
2023/07/12 07:28:07;;;;;;;1.33;1.10;;;;;;;;;;5014665;28;20215;-81
2023/07/12 07:30:37;;;;;;;1.27;1.20;;;;;;;;;;5035283;28;20215;-78
2023/07/12 07:33:06;;;;;;;3.22;1.52;;;;;;;;;;5002738;28;20215;-79
2023/07/12 07:35:31;;;;;;;1.38;1.00;;;;;;;;;;5009942;28;20711;-78
2023/07/12 07:37:57;;;;;;;1.90;1.38;;;;;;;;;;5029062;28;20245;-80
2023/07/12 07:40:22;;;;;;;2.42;1.10;;;;;;;;;;5025887;28;20243;-79
2023/07/12 07:42:48;;;;;;;2.72;1.35;;;;;;;;;;5017633;28;20626;-77
2023/07/12 07:45:13;;;;;;;1.10;1.00;;;;;;;;;;5030334;28;20220;-78
2023/07/12 07:47:41;;;;;;;1.15;1.00;;;;;;;;;;5022895;28;20227;-79
2023/07/12 07:50:07;;;;;;;1.92;1.10;;;;;;;;;;5017151;28;20746;-79
2023/07/12 07:52:33;;;;;;;1.25;1.15;;;;;;;;;;5013625;28;20287;-80
2023/07/12 07:54:58;;;;;;;1.30;0.93;;;;;;;;;;5026610;28;20219;-78
2023/07/12 07:57:24;;;;;;;1.67;0.90;;;;;;;;;;5016167;28;20230;-78
2023/07/12 07:59:49;;;;;;;1.38;0.90;;;;;;;;;;5017845;28;20211;-79
2023/07/12 08:02:15;;;;;;;1.33;0.90;;;;;;;;;;5016722;28;20294;-78
2023/07/12 08:04:40;;;;;;;1.10;0.80;;;;;;;;;;5035800;28;20215;-79
2023/07/12 08:07:06;;;;;;;1.60;1.10;;;;;;;;;;5022770;28;20216;-78
2023/07/12 08:09:37;;;;;;;1.60;1.13;;;;;;;;;;5015539;28;20688;-77
2023/07/12 08:12:03;;;;;;;2.25;0.98;;;;;;;;;;5015107;28;20219;-78
2023/07/12 08:14:34;;;;;;;1.73;1.00;;;;;;;;;;5018010;28;20220;-79
2023/07/12 08:16:59;;;;;;;1.88;1.05;;;;;;;;;;5014005;28;20224;-78
2023/07/12 08:19:25;;;;;;;2.65;1.20;;;;;;;;;;5015367;28;20294;-81
2023/07/12 08:21:50;;;;;;;1.95;1.10;;;;;;;;;;5028384;28;20220;-79
2023/07/12 08:24:16;;;;;;;1.30;1.00;;;;;;;;;;5030019;28;20265;-79
2023/07/12 08:26:45;;;;;;;0.90;0.90;;;;;;;;;;5041473;28;20226;-79
2023/07/12 08:29:10;;;;;;;2.33;1.13;;;;;;;;;;5037385;28;20715;-80
2023/07/12 08:31:36;;;;;;;2.03;1.00;;;;;;;;;;5034691;28;20211;-81
2023/07/12 08:34:01;;;;;;;1.13;1.05;;;;;;;;;;5039909;28;20579;-79
2023/07/12 08:36:27;;;;;;;1.25;1.10;;;;;;;;;;5013369;28;20223;-79
2023/07/12 08:38:52;;;;;;;1.80;1.30;;;;;;;;;;5014912;28;20234;-79
2023/07/12 08:41:21;;;;;;;1.73;1.00;;;;;;;;;;5023218;28;20214;-79
2023/07/12 08:43:47;;;;;;;2.83;1.00;;;;;;;;;;5016601;28;20219;-81
2023/07/12 08:46:23;;;;;;;1.80;0.88;;;;;;;;;;5016734;28;20212;-78
2023/07/12 08:48:58;;;;;;;1.42;1.10;;;;;;;;;;4998848;28;20219;-81
2023/07/12 08:51:27;;;;;;;1.60;1.10;;;;;;;;;;5030266;28;20211;-78
2023/07/12 08:53:52;;;;;;;1.83;1.17;;;;;;;;;;5045119;28;20224;-78
2023/07/12 08:56:19;;;;;;;2.65;1.30;;;;;;;;;;5020114;28;20642;-77
2023/07/12 08:58:52;;;;;;;3.70;1.17;;;;;;;;;;5032319;28;20227;-80
2023/07/12 09:01:36;;;;;;;3.25;1.38;;;;;;;;;;5013169;28;21210;-79
2023/07/12 09:04:25;;;;;;;3.03;1.10;;;;;;;;;;5034459;28;21096;-79
2023/07/12 09:06:53;;;;;;;2.03;1.00;;;;;;;;;;5051173;28;20215;-78
2023/07/12 09:09:19;;;;;;;1.83;1.30;;;;;;;;;;5010580;28;20257;-80
2023/07/12 09:11:44;;;;;;;1.38;1.17;;;;;;;;;;4995348;28;20220;-79
2023/07/12 09:14:17;;;;;;;1.52;1.10;;;;;;;;;;5007922;28;20223;-80
2023/07/12 09:16:46;;;;;;;2.42;1.33;;;;;;;;;;5010651;28;20323;-80
2023/07/12 09:19:14;;;;;;;1.52;1.05;;;;;;;;;;5029437;28;20223;-80
2023/07/12 09:21:47;;;;;;;1.80;1.48;;;;;;;;;;5026049;28;20223;-79
2023/07/12 09:24:14;;;;;;;2.20;1.20;;;;;;;;;;5020330;28;20220;-80
2023/07/12 09:26:40;;;;;;;1.67;1.20;;;;;;;;;;5039641;28;20219;-79
2023/07/12 09:29:07;;;;;;;2.28;1.48;;;;;;;;;;5028450;28;20216;-80
2023/07/12 09:31:34;;;;;;;1.77;1.50;;;;;;;;;;5029617;28;20238;-81
2023/07/12 09:34:06;;;;;;;4.93;1.33;;;;;;;;;;5014699;28;20216;-80
2023/07/12 09:36:38;;;;;;;4.70;1.70;;;;;;;;;;5015486;28;20254;-76
2023/07/12 09:39:05;;;;;;;3.20;1.63;;;;;;;;;;5022849;28;20227;-81
2023/07/12 09:41:30;;;;;;;3.25;1.33;;;;;;;;;;5016114;28;20216;-80
2023/07/12 09:43:57;;;;;;;3.08;1.60;;;;;;;;;;5036911;28;20708;-79
2023/07/12 09:46:39;;;;;;;2.00;1.40;;;;;;;;;;5020624;28;20227;-81
2023/07/12 09:49:16;;;;;;;3.10;1.80;;;;;;;;;;5022094;28;20227;-78
2023/07/12 09:52:04;;;;;;;3.92;1.52;;;;;;;;;;5020712;28;20262;-80
2023/07/12 09:54:29;;;;;;;1.95;1.50;;;;;;;;;;5046378;28;20230;-81
2023/07/12 09:57:05;;;;;;;3.05;1.30;;;;;;;;;;5031619;28;20224;-80
2023/07/12 09:59:49;;;;;;;3.72;1.60;;;;;;;;;;5032507;28;20273;-80
2023/07/12 10:02:19;;;;;;;3.55;1.50;;;;;;;;;;5050180;28;20453;-81
2023/07/12 10:04:52;;;;;;;4.15;1.60;;;;;;;;;;5040570;28;20218;-80
2023/07/12 10:07:48;;;;;;;3.17;1.40;;;;;;;;;;5033006;28;20263;-80
2023/07/12 10:10:34;;;;;;;2.40;1.63;;;;;;;;;;5010439;28;20302;-80
2023/07/12 10:13:28;;;;;;;4.05;1.77;;;;;;;;;;5012380;28;20638;-81
2023/07/12 10:15:56;;;;;;;2.13;1.25;;;;;;;;;;5043083;28;20595;-80
2023/07/12 10:18:24;;;;;;;3.60;1.60;;;;;;;;;;5015736;28;20574;-80
2023/07/12 10:20:52;;;;;;;1.90;1.40;;;;;;;;;;5024508;28;20211;-82
2023/07/12 10:23:20;;;;;;;2.13;1.60;;;;;;;;;;5003427;28;20220;-80
2023/07/12 10:25:48;;;;;;;2.35;1.48;;;;;;;;;;5025785;28;20252;-79
2023/07/12 10:28:22;;;;;;;1.65;1.40;;;;;;;;;;5005133;28;20223;-81
2023/07/12 10:30:49;;;;;;;1.70;1.27;;;;;;;;;;5032206;28;20385;-82
2023/07/12 10:33:36;;;;;;;4.50;1.40;;;;;;;;;;4998385;28;20222;-81
2023/07/12 10:36:05;;;;;;;2.00;1.40;;;;;;;;;;5000609;28;20237;-82
2023/07/12 10:38:31;;;;;;;3.42;1.60;;;;;;;;;;5031546;28;20288;-81
2023/07/12 10:41:29;;;;;;;2.40;1.50;;;;;;;;;;5017059;28;20215;-78
2023/07/12 10:44:05;;;;;;;2.67;1.48;;;;;;;;;;5032503;28;20227;-77
2023/07/12 10:46:41;;;;;;;3.05;1.50;;;;;;;;;;5032295;28;20288;-79
2023/07/12 10:49:13;;;;;;;2.17;1.45;;;;;;;;;;5016921;28;20230;-81
2023/07/12 10:51:59;;;;;;;2.58;1.33;;;;;;;;;;4989821;28;21037;-82
2023/07/12 10:54:28;;;;;;;2.72;1.70;;;;;;;;;;5009975;28;20239;-81
2023/07/12 10:56:56;;;;;;;3.45;1.60;;;;;;;;;;5033586;28;20224;-78
2023/07/12 10:59:33;;;;;;;2.90;1.55;;;;;;;;;;5028858;28;20251;-83
2023/07/12 11:02:04;;;;;;;2.15;1.55;;;;;;;;;;5007908;28;20238;-79
2023/07/12 11:04:30;;;;;;;2.75;1.48;;;;;;;;;;5032665;28;20223;-81
2023/07/12 11:07:15;;;;;;;3.28;1.40;;;;;;;;;;5052137;28;20573;-82
2023/07/12 11:09:44;;;;;;;1.40;1.30;;;;;;;;;;5032816;28;20290;-80
2023/07/12 11:12:11;;;;;;;2.47;1.60;;;;;;;;;;5037811;28;20224;-82
2023/07/12 11:14:39;;;;;;;2.67;1.42;;;;;;;;;;5032668;28;20232;-81
2023/07/12 11:17:07;;;;;;;2.67;1.60;;;;;;;;;;5017253;28;20227;-82
2023/07/12 11:19:44;;;;;;;2.00;1.65;;;;;;;;;;5016867;28;20237;-82
2023/07/12 11:22:12;;;;;;;2.05;1.38;;;;;;;;;;5032515;28;20226;-78
2023/07/12 11:25:06;;;;;;;3.30;1.58;;;;;;;;;;5042959;28;20222;-79
2023/07/12 11:27:54;;;;;;;3.58;1.90;;;;;;;;;;5023124;28;20246;-81
2023/07/12 11:30:27;;;;;;;2.65;1.55;;;;;;;;;;4995309;28;20226;-82
2023/07/12 11:33:21;;;;;;;1.70;1.30;;;;;;;;;;5027305;28;20223;-80
2023/07/12 11:35:49;;;;;;;1.77;1.27;;;;;;;;;;5005719;28;20739;-78
2023/07/12 11:38:20;;;;;;;3.40;1.67;;;;;;;;;;4996545;28;20978;-78
2023/07/12 11:40:47;;;;;;;1.90;1.60;;;;;;;;;;5008315;28;20213;-79
2023/07/12 11:43:24;;;;;;;2.25;1.50;;;;;;;;;;4992885;28;20315;-78
2023/07/12 11:45:54;;;;;;;1.88;1.20;;;;;;;;;;5031255;28;20211;-79
2023/07/12 11:48:20;;;;;;;5.32;1.60;;;;;;;;;;4995723;28;20224;-80
2023/07/12 11:50:47;;;;;;;2.35;1.38;;;;;;;;;;5027935;28;20755;-76
2023/07/12 11:53:15;;;;;;;2.00;1.42;;;;;;;;;;5019507;28;20246;-79
2023/07/12 11:55:41;;;;;;;2.15;1.33;;;;;;;;;;5047956;28;20229;-78
2023/07/12 11:58:17;;;;;;;2.92;1.58;;;;;;;;;;5038097;28;20223;-78
2023/07/12 12:00:43;;;;;;;2.47;1.45;;;;;;;;;;5052618;28;20220;-78
2023/07/12 12:03:08;;;;;;;3.05;1.58;;;;;;;;;;4999634;28;20218;-78
2023/07/12 12:05:34;;;;;;;4.03;1.63;;;;;;;;;;5038249;28;20227;-76
2023/07/12 12:08:03;;;;;;;3.00;1.70;;;;;;;;;;5065176;28;20223;-80
2023/07/12 12:10:34;;;;;;;1.88;1.40;;;;;;;;;;5037517;28;20277;-79
2023/07/12 12:12:59;;;;;;;3.50;1.42;;;;;;;;;;5034027;28;20275;-83
2023/07/12 12:15:27;;;;;;;3.10;1.58;;;;;;;;;;5003279;28;20223;-77
2023/07/12 12:17:54;;;;;;;3.55;1.50;;;;;;;;;;5016908;28;20333;-77
2023/07/12 12:20:26;;;;;;;2.28;1.60;;;;;;;;;;5018539;28;20216;-78
2023/07/12 12:23:07;;;;;;;2.83;1.50;;;;;;;;;;5036968;28;20211;-78
2023/07/12 12:25:32;;;;;;;2.67;1.48;;;;;;;;;;5017090;28;20247;-80
2023/07/12 12:28:03;;;;;;;3.53;1.40;;;;;;;;;;5018553;28;20212;-78
2023/07/12 12:30:29;;;;;;;4.13;1.55;;;;;;;;;;5041179;28;20227;-77
2023/07/12 12:33:04;;;;;;;2.42;1.42;;;;;;;;;;5024902;28;20220;-78
2023/07/12 12:35:39;;;;;;;3.38;1.45;;;;;;;;;;5012177;28;20262;-78
2023/07/12 12:38:17;;;;;;;2.70;1.85;;;;;;;;;;5008991;28;20211;-77
2023/07/12 12:40:50;;;;;;;5.20;1.80;;;;;;;;;;5000589;28;20215;-79
2023/07/12 12:43:18;;;;;;;4.22;1.67;;;;;;;;;;5003644;28;20212;-77
2023/07/12 12:45:46;;;;;;;2.78;1.80;;;;;;;;;;5009981;28;20265;-81
2023/07/12 12:48:11;;;;;;;5.03;1.63;;;;;;;;;;5021003;28;20220;-76
2023/07/12 12:50:42;;;;;;;3.88;1.67;;;;;;;;;;5009715;28;20251;-75
2023/07/12 12:53:13;;;;;;;4.93;1.70;;;;;;;;;;5017255;28;20220;-76
2023/07/12 12:55:41;;;;;;;2.08;1.50;;;;;;;;;;5021725;28;20219;-76
2023/07/12 12:58:10;;;;;;;3.25;1.65;;;;;;;;;;4998230;28;20212;-78
2023/07/12 13:00:36;;;;;;;5.47;2.10;;;;;;;;;;5020493;28;20219;-79
2023/07/12 13:03:05;;;;;;;4.50;1.83;;;;;;;;;;5026033;28;20241;-79
2023/07/12 13:05:31;;;;;;;5.60;1.98;;;;;;;;;;5034003;28;20247;-83
2023/07/12 13:07:58;;;;;;;2.88;1.60;;;;;;;;;;4996673;28;20219;-81
2023/07/12 13:10:26;;;;;;;3.30;1.73;;;;;;;;;;5014488;28;20246;-81
2023/07/12 13:12:56;;;;;;;9.77;1.90;;;;;;;;;;5018681;28;20679;-78
2023/07/12 13:15:22;;;;;;;3.08;1.90;;;;;;;;;;5018207;28;20497;-79
2023/07/12 13:17:50;;;;;;;2.20;1.50;;;;;;;;;;5020441;28;20790;-80
2023/07/12 13:20:18;;;;;;;3.33;1.70;;;;;;;;;;5032811;28;20724;-77
2023/07/12 13:22:45;;;;;;;3.28;1.90;;;;;;;;;;5019415;28;20710;-78
2023/07/12 13:25:13;;;;;;;3.83;1.58;;;;;;;;;;5037597;28;20218;-76
2023/07/12 13:27:39;;;;;;;2.50;1.63;;;;;;;;;;5015862;28;20224;-78
2023/07/12 13:30:11;;;;;;;4.45;1.92;;;;;;;;;;5036035;28;20212;-78
2023/07/12 13:32:39;;;;;;;5.30;1.75;;;;;;;;;;5021344;28;20215;-78
2023/07/12 13:35:05;;;;;;;4.32;1.90;;;;;;;;;;5018273;28;20219;-77
2023/07/12 13:37:37;;;;;;;3.03;1.73;;;;;;;;;;5033439;28;20285;-79
2023/07/12 13:40:03;;;;;;;3.90;1.67;;;;;;;;;;5029257;28;20230;-79
2023/07/12 13:42:29;;;;;;;2.80;1.70;;;;;;;;;;5028256;28;20216;-80
2023/07/12 13:44:54;;;;;;;3.35;1.95;;;;;;;;;;5017833;28;20322;-81
2023/07/12 13:47:24;;;;;;;3.90;1.77;;;;;;;;;;5018912;28;20224;-78
2023/07/12 13:49:53;;;;;;;7.13;2.35;;;;;;;;;;5018097;28;20238;-79
2023/07/12 13:52:21;;;;;;;5.93;1.90;;;;;;;;;;5016362;28;20298;-79
2023/07/12 13:54:47;;;;;;;4.05;1.85;;;;;;;;;;4992823;28;20220;-81
2023/07/12 13:57:17;;;;;;;4.57;2.17;;;;;;;;;;5028833;28;20822;-79
2023/07/12 13:59:46;;;;;;;3.92;1.70;;;;;;;;;;5029778;28;20215;-81
2023/07/12 14:02:35;;;;;;;2.85;1.65;;;;;;;;;;5041255;28;20234;-77
2023/07/12 14:05:03;;;;;;;4.28;2.10;;;;;;;;;;5038486;28;20230;-79
2023/07/12 14:07:32;;;;;;;1.65;1.42;;;;;;;;;;5045083;28;20227;-77
2023/07/12 14:09:58;;;;;;;2.92;1.80;;;;;;;;;;5035338;28;20316;-77
2023/07/12 14:12:25;;;;;;;3.85;1.80;;;;;;;;;;5028789;28;20216;-77
2023/07/12 14:14:51;;;;;;;2.53;1.60;;;;;;;;;;5030358;28;20277;-76
2023/07/12 14:17:20;;;;;;;3.03;1.60;;;;;;;;;;5024401;28;20223;-75
2023/07/12 14:19:51;;;;;;;4.25;1.80;;;;;;;;;;5005101;28;20234;-78
2023/07/12 14:22:19;;;;;;;2.35;1.67;;;;;;;;;;5021440;28;20399;-79
2023/07/12 14:24:45;;;;;;;4.25;1.38;;;;;;;;;;5016490;28;20215;-79
2023/07/12 14:27:20;;;;;;;4.10;1.90;;;;;;;;;;5018510;28;20220;-78
2023/07/12 14:29:48;;;;;;;2.70;1.60;;;;;;;;;;5008127;28;20231;-81
2023/07/12 14:32:35;;;;;;;2.70;1.48;;;;;;;;;;5027307;28;20523;-77
2023/07/12 14:35:04;;;;;;;5.22;1.77;;;;;;;;;;5032737;28;20228;-79
2023/07/12 14:37:31;;;;;;;2.30;1.58;;;;;;;;;;5030317;28;20223;-79
2023/07/12 14:39:56;;;;;;;2.08;1.50;;;;;;;;;;5047198;28;20223;-79
2023/07/12 14:42:29;;;;;;;2.17;1.60;;;;;;;;;;5002154;28;20227;-79
2023/07/12 14:44:55;;;;;;;5.15;1.60;;;;;;;;;;5037030;28;20227;-79
2023/07/12 14:47:26;;;;;;;1.70;1.45;;;;;;;;;;5031415;28;20224;-78
2023/07/12 14:49:54;;;;;;;3.63;1.90;;;;;;;;;;5018970;28;20243;-79
2023/07/12 14:52:19;;;;;;;3.33;2.35;;;;;;;;;;5028090;28;20794;-78
2023/07/12 14:54:45;;;;;;;3.15;2.00;;;;;;;;;;5019240;28;20235;-78
2023/07/12 14:57:13;;;;;;;5.43;2.10;;;;;;;;;;5042286;28;20758;-79